Accueil
METAR-TAF:

METAR-TAF

Aéroports :

Genève, Suisse

Aéroport international de Genève

latitude: 46-15N, longitude: 006-08E, altitude: 420 m

Observation

Le bulletin a été fait il y a 14 minutes, à 18:20 UTC
Vent 1 kt de direction variable
Température 12°C
Humidité 82%
Pression 1020 hPa
Visibilité 10 km ou plus
pas de nuages en-dessous de 1500 mètres et pas de cumulonimbus.

METAR: LSGG 171820Z VRB01KT CAVOK 12/09 Q1020 NOSIG

Heure: 20:34 (18:34 UTC)

Prévision

Le bulletin a été fait il y a 1 heure et 9 minutes, à 17:25 UTC
Prévision valable du 17 à 18 UTC au 18 à 24 UTC
Vent 3 kt de direction variable
Visibilité 10 km ou plus
pas de nuages en-dessous de 1500 mètres et pas de cumulonimbus.
Probabilité 40% :
Temporairement
du 18 à 04 UTC au 18 à 07 UTC
Visibilité: 9000 m
Brouillard mince

TAF: LSGG 171725Z 1718/1824 VRB03KT CAVOK TX20/1815Z TN06/1805Z PROB40 TEMPO 1804/1807 9000 MIFG NSC

Observations et prévisions météorologiques de plus de 4000 aéroports (messages METAR et TAF).

Les stations disponibles sont représentées par des disques jaunes et rouges sur la carte.

Passer la souris dessus pour voir le nom de la station.

Cliquer dessus pour voir les observations et prévisions météorologiques.

Pour changer de carte: cliquez sur les boutons verts avec une croix noire pour zoomer, sur le bouton vert avec un tiret pour effectuer un zoom arrière, ou sur les flèches vertes pour les cartes adjacentes.


METAR-TAF: